Time;durP1;ratioP1;P1;durP2;ratioP2;P2;SDS_P1;SDS_P2;PMS_P1;PMS_P2;Temp;Humidity;BMP_temperature;BMP_pressure;BME280_temperature;BME280_humidity;BME280_pressure;Samples;Min_cycle;Max_cycle;Signal;HPM_P1;HPM_P2
2022/04/01 00:01:56;;;;;;;6.20;1.80;;;0.60;99.90;;;;;;5036144;28;20073;-82
2022/04/01 00:04:22;;;;;;;5.25;2.13;;;0.60;99.90;;;;;;5036272;28;20445;-81
2022/04/01 00:06:47;;;;;;;8.65;2.33;;;0.60;99.90;;;;;;5036340;28;20052;-82
2022/04/01 00:09:13;;;;;;;7.13;2.35;;;0.60;99.90;;;;;;5035969;28;20041;-82
2022/04/01 00:11:38;;;;;;;6.40;2.35;;;0.60;99.90;;;;;;5036207;28;20041;-81
2022/04/01 00:14:04;;;;;;;4.95;1.55;;;0.60;99.90;;;;;;5036423;28;20500;-81
2022/04/01 00:16:30;;;;;;;5.80;1.90;;;0.70;99.90;;;;;;5036453;28;20447;-81
2022/04/01 00:18:55;;;;;;;6.90;2.10;;;0.60;99.90;;;;;;5036085;28;20041;-81
2022/04/01 00:21:21;;;;;;;6.03;2.13;;;0.70;99.90;;;;;;5036276;28;20046;-81
2022/04/01 00:23:47;;;;;;;5.65;2.03;;;0.70;99.90;;;;;;5036355;28;20385;-81
2022/04/01 00:26:12;;;;;;;3.25;1.50;;;0.60;99.90;;;;;;5034819;28;20496;-81
2022/04/01 00:28:38;;;;;;;4.10;1.42;;;0.70;99.90;;;;;;5035924;28;20041;-81
2022/04/01 00:31:04;;;;;;;3.08;1.27;;;0.60;99.90;;;;;;5018847;28;20055;-82
2022/04/01 00:33:31;;;;;;;6.47;1.85;;;0.70;99.90;;;;;;5036346;28;20037;-81
2022/04/01 00:35:57;;;;;;;4.10;1.73;;;0.70;99.90;;;;;;5036068;28;20096;-82
2022/04/01 00:38:23;;;;;;;2.67;1.38;;;0.60;99.90;;;;;;5018072;28;20442;-82
2022/04/01 00:40:51;;;;;;;6.18;2.40;;;0.70;99.90;;;;;;5017354;28;20049;-82
2022/04/01 00:43:24;;;;;;;7.20;1.80;;;0.70;99.90;;;;;;5035555;28;20057;-82
2022/04/01 00:45:50;;;;;;;9.63;2.03;;;0.70;99.90;;;;;;5036153;28;20053;-82
2022/04/01 00:48:17;;;;;;;4.70;1.67;;;0.70;99.90;;;;;;5035540;28;20046;-82
2022/04/01 00:50:43;;;;;;;3.70;1.63;;;0.70;99.90;;;;;;5015594;28;20407;-82
2022/04/01 00:53:08;;;;;;;4.75;2.08;;;0.70;99.90;;;;;;5015994;28;20042;-82
2022/04/01 00:55:34;;;;;;;4.47;1.65;;;0.70;99.90;;;;;;4998109;28;20042;-82
2022/04/01 00:58:00;;;;;;;9.10;1.52;;;0.70;99.90;;;;;;5016601;28;20111;-82
2022/04/01 01:00:28;;;;;;;8.38;1.92;;;0.90;99.90;;;;;;5035262;28;20102;-82
2022/04/01 01:02:54;;;;;;;4.28;2.17;;;0.70;99.90;;;;;;5035637;28;20049;-81
2022/04/01 01:05:20;;;;;;;4.15;1.63;;;0.80;99.90;;;;;;5035203;28;20049;-82
2022/04/01 01:07:46;;;;;;;3.80;1.67;;;0.80;99.90;;;;;;5035278;28;20042;-82
2022/04/01 01:10:13;;;;;;;4.80;1.60;;;0.70;99.90;;;;;;5017547;28;20061;-82
2022/04/01 01:12:41;;;;;;;3.45;1.80;;;0.70;99.90;;;;;;5035174;28;20416;-82
2022/04/01 01:15:13;;;;;;;3.53;1.25;;;0.70;99.90;;;;;;5034986;28;20037;-82
2022/04/01 01:17:39;;;;;;;5.05;1.58;;;0.80;99.90;;;;;;5035194;28;20124;-82
2022/04/01 01:20:12;;;;;;;3.40;1.25;;;0.70;99.90;;;;;;5034740;28;20041;-82
2022/04/01 01:22:39;;;;;;;6.43;1.50;;;0.70;99.90;;;;;;5034542;28;20051;-82
2022/04/01 01:25:08;;;;;;;3.17;1.35;;;0.80;99.90;;;;;;5034979;28;20047;-82
2022/04/01 01:27:33;;;;;;;3.78;1.48;;;0.80;99.90;;;;;;5016887;28;20460;-81
2022/04/01 01:30:02;;;;;;;3.53;1.45;;;0.70;99.90;;;;;;5034371;28;20073;-82
2022/04/01 01:32:29;;;;;;;3.20;1.50;;;0.70;99.90;;;;;;5034495;28;20059;-82
2022/04/01 01:34:58;;;;;;;2.65;1.20;;;0.70;99.90;;;;;;5034357;28;20049;-82
2022/04/01 01:37:23;;;;;;;2.40;1.20;;;0.70;99.90;;;;;;5034184;28;20435;-82
2022/04/01 01:39:49;;;;;;;3.97;1.67;;;0.80;99.90;;;;;;5034218;28;20045;-82
2022/04/01 01:42:15;;;;;;;3.83;1.45;;;0.80;99.90;;;;;;5075247;22;20094;-88
2022/04/01 01:44:41;;;;;;;4.75;1.83;;;0.80;99.90;;;;;;5076918;28;20041;-88
2022/04/01 01:47:07;;;;;;;4.25;2.10;;;0.80;99.90;;;;;;5043021;28;20483;-87
2022/04/01 01:49:33;;;;;;;3.30;1.45;;;0.80;99.90;;;;;;5077373;28;20054;-88
2022/04/01 01:54:45;;;;;;;4.28;1.60;;;0.90;99.90;;;;;;5059563;28;20624;-88
2022/04/01 01:57:15;;;;;;;4.85;1.13;;;0.90;99.90;;;;;;5060267;28;20049;-88
2022/04/01 01:59:41;;;;;;;3.22;1.00;;;0.90;99.90;;;;;;5077793;28;20402;-88
2022/04/01 02:02:08;;;;;;;4.03;1.50;;;0.90;99.90;;;;;;5060267;28;20052;-88
2022/04/01 02:04:38;;;;;;;3.72;1.38;;;0.90;99.90;;;;;;5059378;28;20509;-88
2022/04/01 02:07:04;;;;;;;6.07;1.65;;;0.90;99.90;;;;;;5042007;28;20047;-88
2022/04/01 02:09:30;;;;;;;4.85;1.30;;;1.00;99.90;;;;;;5059133;28;20143;-88
2022/04/01 02:11:56;;;;;;;5.07;1.48;;;1.00;99.90;;;;;;5059256;28;20043;-88
2022/04/01 02:14:22;;;;;;;3.38;1.40;;;1.00;99.90;;;;;;5077454;28;20098;-88
2022/04/01 02:16:51;;;;;;;3.33;1.40;;;1.00;99.90;;;;;;5076689;28;20040;-88
2022/04/01 02:19:21;;;;;;;3.53;1.20;;;1.00;99.90;;;;;;5077884;28;20040;-86
2022/04/01 02:21:53;;;;;;;3.97;1.23;;;1.00;99.90;;;;;;5078336;28;20040;-86
2022/04/01 02:24:32;;;;;;;3.75;1.35;;;1.10;99.90;;;;;;5060565;28;20094;-86
2022/04/01 02:26:57;;;;;;;2.53;0.90;;;0.90;99.90;;;;;;5058849;28;20055;-86
2022/04/01 02:29:23;;;;;;;5.45;1.48;;;1.20;99.90;;;;;;5058959;28;20048;-86
2022/04/01 02:31:50;;;;;;;4.35;1.35;;;0.90;99.90;;;;;;5059441;28;20423;-85
2022/04/01 02:34:19;;;;;;;4.10;1.30;;;0.90;99.90;;;;;;5078905;28;20041;-87
2022/04/01 02:36:45;;;;;;;2.63;1.23;;;1.00;99.90;;;;;;5059591;28;20040;-86
2022/04/01 02:39:11;;;;;;;4.72;1.85;;;1.00;99.90;;;;;;5057762;28;20039;-86
2022/04/01 02:41:37;;;;;;;3.53;1.33;;;1.00;99.90;;;;;;5075749;28;20070;-87
2022/04/01 02:44:12;;;;;;;3.97;1.38;;;1.00;99.90;;;;;;5076188;28;20064;-87
2022/04/01 02:46:45;;;;;;;14.95;1.67;;;1.00;99.90;;;;;;5076648;28;20044;-87
2022/04/01 02:49:15;;;;;;;2.88;1.20;;;1.00;99.90;;;;;;5057778;28;20112;-87
2022/04/01 02:51:41;;;;;;;3.28;1.27;;;1.10;99.90;;;;;;5058832;28;20040;-86
2022/04/01 02:54:08;;;;;;;3.33;1.45;;;1.10;99.90;;;;;;5076373;28;20066;-86
2022/04/01 02:56:36;;;;;;;3.78;1.70;;;1.10;99.90;;;;;;5041082;28;20183;-87
2022/04/01 02:59:02;;;;;;;6.32;1.40;;;1.10;99.90;;;;;;5041560;28;20491;-87
2022/04/01 03:01:28;;;;;;;2.65;1.40;;;1.20;99.90;;;;;;5075560;28;20040;-87
2022/04/01 03:03:55;;;;;;;6.03;2.30;;;1.10;99.90;;;;;;5076447;28;20075;-87
2022/04/01 03:06:21;;;;;;;3.50;1.52;;;1.90;99.90;;;;;;5075983;28;20044;-87
2022/04/01 03:08:47;;;;;;;2.22;1.10;;;1.20;99.90;;;;;;5057874;28;20482;-87
2022/04/01 03:11:13;;;;;;;2.42;1.30;;;1.10;99.90;;;;;;5058383;28;20517;-87
2022/04/01 03:13:38;;;;;;;8.88;1.73;;;1.20;99.90;;;;;;5041444;28;20045;-87
2022/04/01 03:16:04;;;;;;;3.40;1.73;;;1.20;99.90;;;;;;5058727;28;20036;-87
2022/04/01 03:18:29;;;;;;;3.72;1.63;;;1.20;99.90;;;;;;5077239;28;20061;-87
2022/04/01 03:20:55;;;;;;;3.55;1.80;;;1.20;99.90;;;;;;5075968;28;20105;-87
2022/04/01 03:23:20;;;;;;;3.13;1.38;;;1.20;99.90;;;;;;5075600;28;20036;-87
2022/04/01 03:25:46;;;;;;;7.63;1.40;;;1.20;99.90;;;;;;5075233;28;20490;-87
2022/04/01 03:28:13;;;;;;;5.15;1.30;;;1.20;99.90;;;;;;5057538;28;20496;-86
2022/04/01 03:30:38;;;;;;;5.53;1.25;;;1.20;99.90;;;;;;5075339;28;20045;-87
2022/04/01 03:33:04;;;;;;;2.85;1.25;;;1.20;99.90;;;;;;5057381;28;20106;-87
2022/04/01 03:35:29;;;;;;;9.63;1.60;;;1.20;99.90;;;;;;5076679;28;20060;-88
2022/04/01 03:37:55;;;;;;;6.78;1.23;;;1.30;99.90;;;;;;5075090;28;20032;-87
2022/04/01 03:40:22;;;;;;;7.30;2.20;;;1.30;99.90;;;;;;5075511;28;20063;-87
2022/04/01 03:42:51;;;;;;;5.28;1.33;;;2.00;99.90;;;;;;5074567;28;20105;-87
2022/04/01 03:45:17;;;;;;;5.30;1.50;;;1.70;99.90;;;;;;5075272;28;20399;-87
2022/04/01 03:47:51;;;;;;;5.50;1.27;;;1.30;99.90;;;;;;5057403;28;20122;-87
2022/04/01 03:50:17;;;;;;;4.35;1.60;;;1.30;99.90;;;;;;5057645;28;20120;-87
2022/04/01 03:52:47;;;;;;;4.47;1.10;;;1.30;99.90;;;;;;5080075;28;20037;-87
2022/04/01 03:55:12;;;;;;;3.50;1.25;;;1.90;99.90;;;;;;5064280;28;20059;-87
2022/04/01 03:57:41;;;;;;;8.60;1.08;;;1.40;99.90;;;;;;5063436;28;20072;-87
2022/04/01 04:00:12;;;;;;;3.35;1.33;;;1.40;99.90;;;;;;5062418;28;20047;-86
2022/04/01 04:02:43;;;;;;;4.47;1.63;;;1.40;99.90;;;;;;5062924;28;20105;-87
2022/04/01 04:05:10;;;;;;;5.50;1.35;;;1.40;99.90;;;;;;5064216;28;20043;-87
2022/04/01 04:07:39;;;;;;;3.58;1.20;;;1.40;99.90;;;;;;5081457;28;20049;-87
2022/04/01 04:10:06;;;;;;;5.22;1.52;;;1.40;99.90;;;;;;5049613;28;20086;-87
2022/04/01 04:12:35;;;;;;;4.60;1.70;;;1.40;99.90;;;;;;5065796;28;20190;-87
2022/04/01 04:15:01;;;;;;;6.22;1.52;;;1.40;99.90;;;;;;5047323;28;20067;-86
2022/04/01 04:17:36;;;;;;;6.47;1.60;;;1.40;99.90;;;;;;5082419;28;20037;-87
2022/04/01 04:20:28;;;;;;;5.63;1.33;;;1.40;99.90;;;;;;5066426;28;20032;-86
2022/04/01 04:23:19;;;;;;;4.63;0.80;;;1.40;99.90;;;;;;5048595;28;20398;-87
2022/04/01 04:26:00;;;;;;;4.95;1.65;;;1.50;99.90;;;;;;5061688;28;20044;-87
2022/04/01 04:28:30;;;;;;;2.85;0.98;;;1.40;99.90;;;;;;5061361;28;20037;-86
2022/04/01 04:31:02;;;;;;;2.45;1.05;;;1.40;99.90;;;;;;5079741;28;20371;-86
2022/04/01 04:33:33;;;;;;;2.65;1.00;;;1.40;99.90;;;;;;5063029;28;20049;-87
2022/04/01 04:36:04;;;;;;;5.30;2.13;;;1.40;99.90;;;;;;5062416;28;20068;-87
2022/04/01 04:38:37;;;;;;;7.10;1.30;;;1.40;99.90;;;;;;5082508;28;20068;-87
2022/04/01 04:41:08;;;;;;;3.03;1.27;;;1.40;99.90;;;;;;5049629;28;20052;-87
2022/04/01 04:43:38;;;;;;;3.00;1.08;;;1.50;99.90;;;;;;5085680;28;20064;-86
2022/04/01 04:46:05;;;;;;;3.78;1.40;;;1.30;99.90;;;;;;5051405;28;20041;-87
2022/04/01 04:48:33;;;;;;;6.70;1.58;;;1.30;99.90;;;;;;5087215;28;20052;-87
2022/04/01 04:51:02;;;;;;;4.65;1.50;;;1.30;99.90;;;;;;5066269;28;20121;-87
2022/04/01 04:53:30;;;;;;;4.57;1.85;;;1.40;99.90;;;;;;5084243;28;20359;-87
2022/04/01 04:55:59;;;;;;;7.20;1.83;;;1.30;99.90;;;;;;5048777;28;20078;-87
2022/04/01 04:58:39;;;;;;;5.80;1.52;;;1.30;99.90;;;;;;5066432;28;20441;-87
2022/04/01 05:01:15;;;;;;;3.25;1.33;;;1.30;99.90;;;;;;5064832;28;20107;-87
2022/04/01 05:04:05;;;;;;;4.78;1.02;;;1.30;99.90;;;;;;5062421;28;20048;-87
2022/04/01 05:06:39;;;;;;;4.63;1.23;;;1.20;99.90;;;;;;5061465;28;20092;-87
2022/04/01 05:09:23;;;;;;;6.25;2.17;;;1.30;99.90;;;;;;5062412;28;20044;-87
2022/04/01 05:12:12;;;;;;;4.63;1.67;;;1.30;99.90;;;;;;5062126;28;20056;-88
2022/04/01 05:14:59;;;;;;;6.65;1.50;;;1.30;99.90;;;;;;5061860;28;20048;-87
2022/04/01 05:17:36;;;;;;;3.05;1.10;;;1.30;99.90;;;;;;5078181;28;20051;-87
2022/04/01 05:20:16;;;;;;;2.03;1.27;;;1.30;99.90;;;;;;5077952;28;20455;-87
2022/04/01 05:23:15;;;;;;;1.23;0.68;;;1.30;99.90;;;;;;5060959;28;20044;-87
2022/04/01 05:25:44;;;;;;;8.27;2.17;;;1.30;99.90;;;;;;5060515;28;20040;-87
2022/04/01 05:28:20;;;;;;;6.22;1.48;;;1.40;99.90;;;;;;5042881;28;20045;-86
2022/04/01 05:30:49;;;;;;;6.10;1.45;;;1.40;99.90;;;;;;5059197;28;20044;-87
2022/04/01 05:33:16;;;;;;;5.53;1.33;;;1.40;99.90;;;;;;5076982;28;20475;-86
2022/04/01 05:35:44;;;;;;;4.07;1.83;;;1.40;99.90;;;;;;5077004;28;20387;-87
2022/04/01 05:38:10;;;;;;;3.92;1.25;;;1.50;99.90;;;;;;5042262;28;20036;-87
2022/04/01 05:40:37;;;;;;;1.92;1.13;;;1.50;99.90;;;;;;5059227;28;20040;-87
2022/04/01 05:43:04;;;;;;;3.13;1.30;;;1.50;99.90;;;;;;5059225;28;20052;-87
2022/04/01 05:45:30;;;;;;;2.70;1.23;;;2.50;99.90;;;;;;5080668;28;20044;-87
2022/04/01 05:47:57;;;;;;;4.13;1.20;;;1.60;99.90;;;;;;5061605;28;20044;-86
2022/04/01 05:50:25;;;;;;;2.38;1.23;;;2.10;99.90;;;;;;5061082;28;20444;-86
2022/04/01 05:52:52;;;;;;;9.00;1.45;;;1.60;99.90;;;;;;5061553;28;20730;-87
2022/04/01 05:55:26;;;;;;;3.95;1.08;;;1.70;99.90;;;;;;5044587;28;20543;-87
2022/04/01 05:57:53;;;;;;;6.35;1.13;;;1.70;99.90;;;;;;5060754;28;20040;-87
2022/04/01 06:00:18;;;;;;;3.28;1.30;;;1.70;99.90;;;;;;5061971;28;20124;-86
2022/04/01 06:03:04;;;;;;;1.75;0.70;;;1.80;99.90;;;;;;5062729;28;20083;-88
2022/04/01 06:05:54;;;;;;;2.50;1.40;;;1.80;99.90;;;;;;5081170;28;20051;-88
2022/04/01 06:08:47;;;;;;;4.50;1.33;;;1.80;99.90;;;;;;5066636;28;20044;-86
2022/04/01 06:11:22;;;;;;;2.40;1.10;;;1.90;99.90;;;;;;5069679;28;20041;-87
2022/04/01 06:13:53;;;;;;;5.47;1.25;;;2.70;99.90;;;;;;5053818;28;20044;-87
2022/04/01 06:16:29;;;;;;;3.40;1.50;;;2.00;99.90;;;;;;5072029;28;20052;-86
2022/04/01 06:19:11;;;;;;;12.07;2.17;;;2.00;99.90;;;;;;5053614;28;20067;-85
2022/04/01 06:21:48;;;;;;;3.33;1.40;;;2.00;99.90;;;;;;5078459;28;20421;-85
2022/04/01 06:24:32;;;;;;;3.60;1.27;;;2.10;99.90;;;;;;5075930;28;20048;-86
2022/04/01 06:27:00;;;;;;;2.65;0.95;;;2.10;99.90;;;;;;5057895;28;20433;-86
2022/04/01 06:29:37;;;;;;;1.88;1.00;;;2.10;99.90;;;;;;5061538;28;20040;-87
2022/04/01 06:32:32;;;;;;;4.35;1.83;;;2.20;99.90;;;;;;5042648;28;20056;-86
2022/04/01 06:35:26;;;;;;;3.00;1.10;;;2.20;99.90;;;;;;5076521;28;20044;-87
2022/04/01 06:38:00;;;;;;;2.35;1.02;;;2.20;99.90;;;;;;5043115;28;20052;-87
2022/04/01 06:40:33;;;;;;;4.47;1.40;;;2.20;99.90;;;;;;5060843;28;20096;-87
2022/04/01 06:42:59;;;;;;;5.65;1.55;;;2.20;99.90;;;;;;5044687;28;20044;-87
2022/04/01 06:45:24;;;;;;;2.45;1.38;;;2.30;99.90;;;;;;5060553;28;20048;-87
2022/04/01 06:47:50;;;;;;;3.15;0.90;;;2.30;99.90;;;;;;5061185;28;20070;-86
2022/04/01 06:50:16;;;;;;;5.22;1.58;;;2.30;99.90;;;;;;5079011;28;20040;-87
2022/04/01 06:52:42;;;;;;;11.20;1.88;;;2.90;99.90;;;;;;5079661;28;20052;-86
2022/04/01 06:55:08;;;;;;;5.03;1.20;;;2.30;99.90;;;;;;5079566;28;20147;-86
2022/04/01 06:57:35;;;;;;;7.03;1.58;;;2.30;99.90;;;;;;5082657;28;20064;-88
2022/04/01 07:00:02;;;;;;;5.00;1.58;;;2.40;99.90;;;;;;5088853;28;20041;-87
2022/04/01 07:02:29;;;;;;;5.07;1.00;;;2.40;99.90;;;;;;5097526;28;20032;-88
2022/04/01 07:04:54;;;;;;;3.90;1.60;;;2.40;99.90;;;;;;5079383;28;20043;-89
2022/04/01 07:07:20;;;;;;;6.60;1.33;;;2.40;99.90;;;;;;5092713;28;20044;-88
2022/04/01 07:09:48;;;;;;;5.03;1.00;;;2.40;99.90;;;;;;5093343;28;20084;-92
2022/04/01 07:12:13;;;;;;;4.85;1.25;;;2.50;99.90;;;;;;5079068;28;20043;-92
2022/04/01 07:14:39;;;;;;;6.10;1.05;;;2.50;99.90;;;;;;5078810;28;20040;-92
2022/04/01 07:17:04;;;;;;;4.63;1.13;;;2.90;99.90;;;;;;5096127;28;20056;-91
2022/04/01 07:19:30;;;;;;;1.52;0.75;;;2.50;99.90;;;;;;5061779;28;20029;-92
2022/04/01 07:21:56;;;;;;;2.97;1.10;;;2.50;99.90;;;;;;5096367;28;20031;-91
2022/04/01 07:24:21;;;;;;;2.38;0.95;;;2.50;99.90;;;;;;5079092;28;20033;-92
2022/04/01 07:26:47;;;;;;;5.25;1.52;;;2.50;99.90;;;;;;5096194;28;20051;-91
2022/04/01 07:29:13;;;;;;;3.63;1.38;;;2.50;99.90;;;;;;5079056;28;20075;-91
2022/04/01 07:34:32;;;;;;;3.17;1.02;;;2.60;99.90;;;;;;5098054;28;20040;-91
2022/04/01 07:36:58;;;;;;;4.43;1.52;;;2.70;99.90;;;;;;5065704;28;20036;-90
2022/04/01 07:39:24;;;;;;;2.83;1.00;;;3.10;99.90;;;;;;5082408;28;20055;-91
2022/04/01 07:41:49;;;;;;;2.55;0.98;;;2.70;99.90;;;;;;5099460;28;20047;-90
2022/04/01 07:44:15;;;;;;;9.40;1.20;;;2.60;99.90;;;;;;5099266;28;20040;-87
2022/04/01 07:46:41;;;;;;;3.38;1.45;;;2.60;99.90;;;;;;5099374;28;20055;-88
2022/04/01 07:49:07;;;;;;;5.00;1.58;;;2.30;99.90;;;;;;5081277;28;20020;-87
2022/04/01 07:51:32;;;;;;;5.32;1.45;;;2.70;99.90;;;;;;5098964;28;20055;-90
2022/04/01 07:53:58;;;;;;;4.90;1.90;;;2.70;99.90;;;;;;5081653;28;20044;-90
2022/04/01 07:56:30;;;;;;;3.60;1.20;;;3.30;99.90;;;;;;5082099;28;20035;-89
2022/04/01 07:58:59;;;;;;;3.72;1.75;;;3.20;99.90;;;;;;5078191;28;20055;-89
2022/04/01 08:01:28;;;;;;;5.47;1.60;;;2.70;99.90;;;;;;5079700;28;20036;-89
2022/04/01 08:03:53;;;;;;;5.68;1.65;;;2.70;99.90;;;;;;5079310;28;20048;-89
2022/04/01 08:06:19;;;;;;;5.93;1.65;;;2.70;99.90;;;;;;5063292;28;20041;-90
2022/04/01 08:08:44;;;;;;;3.67;1.23;;;2.50;99.90;;;;;;5079793;28;20052;-90
2022/04/01 08:11:10;;;;;;;4.38;1.17;;;2.40;99.90;;;;;;5093635;28;20041;-90
2022/04/01 08:13:36;;;;;;;7.00;1.55;;;3.30;99.90;;;;;;5078292;28;20028;-90
2022/04/01 08:16:02;;;;;;;2.92;1.30;;;2.40;99.90;;;;;;5061144;28;20021;-89
2022/04/01 08:18:27;;;;;;;2.40;1.00;;;2.30;99.90;;;;;;5075191;28;20044;-88
2022/04/01 08:20:53;;;;;;;3.72;1.27;;;2.40;99.90;;;;;;5060032;28;20040;-89
2022/04/01 08:23:19;;;;;;;8.23;2.45;;;2.30;99.90;;;;;;5060563;28;20109;-90
2022/04/01 08:25:46;;;;;;;5.90;1.55;;;2.50;99.90;;;;;;5074151;28;20104;-90
2022/04/01 08:28:12;;;;;;;6.70;2.05;;;2.10;99.90;;;;;;5067222;28;20163;-90
2022/04/01 08:30:40;;;;;;;7.40;2.30;;;2.00;99.90;;;;;;5048316;28;20049;-90
2022/04/01 08:33:05;;;;;;;12.93;2.75;;;2.30;99.90;;;;;;5070299;28;20083;-89
2022/04/01 08:35:33;;;;;;;4.97;2.42;;;1.50;99.90;;;;;;5047860;28;20040;-88
2022/04/01 08:37:58;;;;;;;8.95;2.80;;;1.40;99.90;;;;;;5064215;28;20045;-88
2022/04/01 08:40:26;;;;;;;6.95;3.55;;;1.60;99.90;;;;;;5047185;28;20041;-87
2022/04/01 08:42:52;;;;;;;9.38;3.28;;;1.70;99.90;;;;;;5064884;28;20064;-87
2022/04/01 08:45:19;;;;;;;6.45;3.05;;;1.80;99.90;;;;;;5046155;28;20060;-88
2022/04/01 08:47:46;;;;;;;7.15;3.75;;;2.40;99.90;;;;;;5067386;28;20037;-89
2022/04/01 08:50:11;;;;;;;9.98;3.03;;;1.80;99.90;;;;;;5046932;28;20052;-90
2022/04/01 08:52:37;;;;;;;10.05;3.97;;;1.90;99.90;;;;;;5049919;28;20120;-89
2022/04/01 08:55:09;;;;;;;12.27;3.85;;;1.90;99.90;;;;;;5049412;28;20056;-90
2022/04/01 08:57:37;;;;;;;8.80;4.20;;;1.90;99.90;;;;;;5030431;28;20506;-89
2022/04/01 09:00:22;;;;;;;6.95;4.03;;;1.90;99.90;;;;;;5067411;28;20049;-89
2022/04/01 09:03:04;;;;;;;7.67;4.00;;;2.00;99.90;;;;;;5044803;28;20056;-89
2022/04/01 09:05:29;;;;;;;9.90;4.75;;;2.10;99.90;;;;;;5062223;28;20762;-89
2022/04/01 09:08:15;;;;;;;10.68;4.47;;;2.10;99.90;;;;;;5042962;28;20128;-89
2022/04/01 09:10:57;;;;;;;6.50;3.72;;;2.20;99.90;;;;;;5076736;28;20095;-89
2022/04/01 09:13:28;;;;;;;6.70;3.17;;;2.30;99.90;;;;;;5063244;28;20052;-89
2022/04/01 09:15:55;;;;;;;12.70;3.80;;;2.30;99.90;;;;;;5028239;28;20048;-89
2022/04/01 09:18:52;;;;;;;9.50;4.57;;;2.20;99.90;;;;;;5042000;28;20044;-89
2022/04/01 09:21:17;;;;;;;8.05;3.80;;;2.10;99.90;;;;;;5025789;28;20040;-90
2022/04/01 09:23:48;;;;;;;8.98;3.22;;;2.30;99.90;;;;;;5041217;28;20128;-89
2022/04/01 09:26:18;;;;;;;7.68;3.53;;;2.30;99.90;;;;;;5059009;28;20369;-88
2022/04/01 09:28:43;;;;;;;6.53;3.83;;;2.30;99.90;;;;;;5040914;28;20077;-89
2022/04/01 09:31:12;;;;;;;5.93;2.50;;;2.30;99.90;;;;;;5058606;28;20037;-89
2022/04/01 09:33:50;;;;;;;6.10;2.70;;;2.40;99.90;;;;;;5040367;28;20511;-88
2022/04/01 09:36:25;;;;;;;6.35;3.10;;;2.30;99.90;;;;;;5057355;28;20040;-89
2022/04/01 09:38:59;;;;;;;6.35;2.85;;;2.50;99.90;;;;;;5040615;28;20087;-89
2022/04/01 09:41:32;;;;;;;7.45;3.80;;;2.70;99.90;;;;;;5040721;28;20122;-88
2022/04/01 09:44:03;;;;;;;6.40;3.78;;;2.50;99.90;;;;;;5040040;28;20059;-89
2022/04/01 09:46:29;;;;;;;6.75;3.80;;;2.60;99.90;;;;;;5058252;28;20041;-89
2022/04/01 09:48:57;;;;;;;9.35;3.30;;;3.70;99.90;;;;;;5040048;28;20102;-88
2022/04/01 09:51:23;;;;;;;8.63;3.50;;;2.70;99.90;;;;;;5057927;28;20053;-88
2022/04/01 09:53:53;;;;;;;6.25;3.53;;;2.70;99.90;;;;;;5058116;28;20098;-89
2022/04/01 09:56:39;;;;;;;6.57;3.65;;;2.60;99.90;;;;;;5040143;28;20059;-89
2022/04/01 09:59:05;;;;;;;9.65;4.35;;;2.80;99.90;;;;;;5056824;28;20045;-89
2022/04/01 10:01:36;;;;;;;10.07;4.32;;;2.90;99.90;;;;;;5023504;28;20045;-89
2022/04/01 10:04:03;;;;;;;9.68;4.45;;;2.80;99.90;;;;;;5056955;28;20631;-88
2022/04/01 10:06:31;;;;;;;7.68;4.38;;;2.80;99.90;;;;;;5039379;28;20433;-88
2022/04/01 10:09:04;;;;;;;8.27;4.18;;;2.90;99.90;;;;;;5039041;28;20075;-88
2022/04/01 10:11:31;;;;;;;5.60;3.15;;;3.10;99.90;;;;;;5073390;28;20041;-88
2022/04/01 10:14:02;;;;;;;5.10;3.15;;;3.20;99.90;;;;;;5057142;28;20045;-89
2022/04/01 10:16:30;;;;;;;4.93;2.08;;;3.10;99.90;;;;;;5073264;28;20345;-89
2022/04/01 10:18:59;;;;;;;5.97;2.92;;;3.10;99.90;;;;;;5039444;28;20056;-89
2022/04/01 10:21:25;;;;;;;5.00;1.90;;;2.80;99.90;;;;;;5039269;28;20051;-89
2022/04/01 10:24:14;;;;;;;3.65;2.03;;;2.70;99.90;;;;;;5057054;28;20039;-89
2022/04/01 10:26:59;;;;;;;6.10;2.17;;;2.80;99.90;;;;;;5039025;28;20128;-89
2022/04/01 10:29:26;;;;;;;5.85;2.33;;;3.10;99.90;;;;;;5039258;28;20067;-88
2022/04/01 10:31:55;;;;;;;10.40;3.08;;;3.10;99.90;;;;;;5072198;28;20041;-89
2022/04/01 10:34:22;;;;;;;5.93;3.10;;;3.20;99.90;;;;;;5057053;28;20048;-89
2022/04/01 10:37:00;;;;;;;5.15;2.38;;;3.40;99.90;;;;;;5039099;28;20072;-89
2022/04/01 10:39:28;;;;;;;5.55;1.60;;;3.60;99.90;;;;;;5056730;28;20095;-89
2022/04/01 10:42:08;;;;;;;4.65;2.67;;;3.60;99.90;;;;;;5021990;28;20068;-89
2022/04/01 10:44:55;;;;;;;4.07;1.50;;;3.70;99.90;;;;;;5042040;28;20041;-89
2022/04/01 10:47:24;;;;;;;5.10;1.85;;;3.80;99.90;;;;;;5076801;28;20056;-89
2022/04/01 10:52:34;;;;;;;4.93;1.75;;;3.80;99.90;;;;;;5039956;28;20502;-89
2022/04/01 10:55:03;;;;;;;5.97;1.75;;;3.60;99.90;;;;;;5056716;28;20066;-88
2022/04/01 10:57:30;;;;;;;4.35;1.63;;;3.30;99.90;;;;;;5045208;28;20045;-89
2022/04/01 11:00:15;;;;;;;6.50;2.08;;;3.20;99.90;;;;;;5051612;28;20068;-88
2022/04/01 11:02:43;;;;;;;6.40;2.45;;;3.10;99.90;;;;;;5060571;28;20041;-90
2022/04/01 11:05:29;;;;;;;4.35;2.22;;;3.00;99.90;;;;;;5078237;28;20051;-90
2022/04/01 11:08:14;;;;;;;4.70;2.10;;;2.90;99.90;;;;;;5061299;28;20049;-90
2022/04/01 11:10:40;;;;;;;4.70;1.70;;;3.00;99.90;;;;;;5044435;28;20047;-90
2022/04/01 11:13:29;;;;;;;4.03;1.52;;;3.10;99.90;;;;;;5044472;28;20020;-91
2022/04/01 11:16:12;;;;;;;4.10;1.88;;;3.20;99.90;;;;;;5060684;28;20076;-91
2022/04/01 11:19:09;;;;;;;7.65;2.15;;;3.40;99.90;;;;;;5044675;28;20037;-89
2022/04/01 11:21:35;;;;;;;3.72;2.33;;;3.80;99.90;;;;;;5060776;28;20025;-92
2022/04/01 11:24:20;;;;;;;3.88;1.45;;;3.60;99.90;;;;;;5078018;28;20037;-90
2022/04/01 11:26:45;;;;;;;5.35;1.80;;;3.70;99.90;;;;;;5060215;28;20085;-91
2022/04/01 11:29:22;;;;;;;8.40;1.50;;;3.50;99.90;;;;;;5060279;28;20018;-92
2022/04/01 11:31:48;;;;;;;5.63;1.85;;;3.70;99.90;;;;;;5064545;28;20676;-89
2022/04/01 11:34:14;;;;;;;4.97;1.80;;;3.70;99.90;;;;;;5038906;28;20478;-89
2022/04/01 11:36:41;;;;;;;7.35;2.47;;;3.80;99.90;;;;;;5057547;28;20037;-89
2022/04/01 11:39:10;;;;;;;4.53;1.70;;;4.00;99.90;;;;;;5042817;28;20045;-89
2022/04/01 11:41:46;;;;;;;3.83;1.70;;;4.20;99.90;;;;;;5047778;28;20116;-90
2022/04/01 11:44:14;;;;;;;6.25;1.98;;;4.30;99.90;;;;;;5060530;28;20131;-89
2022/04/01 11:46:40;;;;;;;4.47;1.80;;;4.50;99.90;;;;;;5061434;28;20041;-89
2022/04/01 11:49:09;;;;;;;4.97;1.63;;;4.70;99.90;;;;;;5057427;28;20053;-90
2022/04/01 11:51:38;;;;;;;3.40;1.60;;;4.90;99.90;;;;;;5041373;28;20069;-90
2022/04/01 11:54:04;;;;;;;4.55;1.52;;;4.90;99.90;;;;;;5052641;28;20097;-89
2022/04/01 11:56:30;;;;;;;2.47;1.27;;;5.10;99.90;;;;;;5071400;28;20041;-90
2022/04/01 11:59:01;;;;;;;3.72;1.75;;;5.00;99.90;;;;;;5069444;28;20101;-90
2022/04/01 12:01:35;;;;;;;3.80;2.20;;;5.30;99.90;;;;;;5053753;28;20060;-90
2022/04/01 12:04:11;;;;;;;6.80;1.83;;;4.80;99.90;;;;;;5044620;28;20052;-89
2022/04/01 12:09:32;;;;;;;10.18;3.08;;;6.20;99.90;;;;;;5039462;28;20056;-90
2022/04/01 12:11:58;;;;;;;5.20;2.20;;;5.20;99.90;;;;;;5055904;28;20087;-90
2022/04/01 12:14:25;;;;;;;3.90;1.75;;;5.30;99.90;;;;;;5066998;28;20041;-90
2022/04/01 12:16:51;;;;;;;6.43;2.00;;;5.40;99.90;;;;;;5057985;28;20056;-89
2022/04/01 12:19:20;;;;;;;7.22;2.10;;;5.60;99.90;;;;;;5042676;28;20064;-89
2022/04/01 12:22:04;;;;;;;10.45;2.30;;;5.70;99.90;;;;;;5054346;28;20041;-89
2022/04/01 12:24:32;;;;;;;6.47;2.25;;;5.60;99.90;;;;;;5053400;28;20041;-89
2022/04/01 12:26:59;;;;;;;5.78;1.90;;;5.70;99.90;;;;;;5041738;28;20047;-89
2022/04/01 12:29:27;;;;;;;5.63;2.00;;;5.50;99.90;;;;;;5059380;28;20037;-88
2022/04/01 12:31:58;;;;;;;7.20;3.00;;;5.70;99.90;;;;;;5024295;28;20052;-89
2022/04/01 12:34:25;;;;;;;3.63;1.58;;;5.80;99.90;;;;;;5059567;28;20410;-89
2022/04/01 12:37:02;;;;;;;4.03;1.60;;;5.70;99.90;;;;;;5062829;28;20048;-90
2022/04/01 12:39:29;;;;;;;5.32;1.25;;;5.60;99.90;;;;;;5076698;28;20063;-89
2022/04/01 12:41:57;;;;;;;3.92;1.40;;;5.60;99.90;;;;;;5041512;28;20076;-89
2022/04/01 12:44:31;;;;;;;3.05;1.25;;;5.50;99.90;;;;;;5042156;28;20049;-89
2022/04/01 12:47:03;;;;;;;4.80;1.75;;;5.50;99.90;;;;;;5060228;28;20049;-89
2022/04/01 12:49:33;;;;;;;3.55;1.52;;;5.50;99.90;;;;;;5026033;28;20040;-88
2022/04/01 12:52:19;;;;;;;3.25;1.00;;;5.50;99.90;;;;;;5059196;28;20101;-89
2022/04/01 12:54:49;;;;;;;4.83;1.30;;;5.10;99.90;;;;;;5045559;28;20079;-89
2022/04/01 12:57:17;;;;;;;3.55;1.38;;;4.90;99.90;;;;;;5042439;28;20343;-90
2022/04/01 12:59:47;;;;;;;5.47;1.70;;;5.00;99.90;;;;;;5043436;28;20090;-89
2022/04/01 13:02:15;;;;;;;3.63;1.63;;;5.10;99.90;;;;;;5043877;28;20061;-89
2022/04/01 13:04:56;;;;;;;5.53;1.88;;;5.00;99.90;;;;;;5059236;28;20037;-89
2022/04/01 13:07:31;;;;;;;5.93;1.83;;;5.20;99.90;;;;;;5059566;28;20052;-89
2022/04/01 13:10:13;;;;;;;5.80;1.70;;;5.10;99.90;;;;;;5060300;28;20487;-89
2022/04/01 13:12:43;;;;;;;3.70;1.60;;;5.20;99.90;;;;;;5060408;28;20120;-89
2022/04/01 13:15:20;;;;;;;4.60;1.90;;;5.10;99.90;;;;;;5076399;28;20045;-88
2022/04/01 13:17:55;;;;;;;4.88;1.23;;;5.10;99.90;;;;;;5040959;28;20111;-89
2022/04/01 13:20:30;;;;;;;5.13;1.60;;;5.20;99.90;;;;;;5059331;28;20357;-89
2022/04/01 13:22:56;;;;;;;3.90;1.50;;;5.10;99.90;;;;;;5041294;28;20287;-89
2022/04/01 13:25:27;;;;;;;5.72;1.48;;;5.60;99.90;;;;;;5041185;28;20454;-89